Woodstock, United Kingdom
Current Conditions -  °F | °C
As of 5:50 PM on Thursday 30 Oct 2014 (Local Time) from EGTK Reporting Station
Broken Clouds Broken Clouds  
Wind Chill: 61°   Ceiling: 1400
Heat Index: 61°   Visibility: 6mi
Dew Point: 59°   Wind: 8mph
Humidity: 94%   Direction: 150°SSE
Pressure: 30.03"   Gusts: NA
Location:  51.85°N, 1.35°W
Report Text: EGTK 301750Z 15007KT 9999 BKN014 BKN049 16/15 Q1017
Loading
Personal Weather Stations






























Interactive Weather Map
Tropical Storm Tracking
New forecast layout! Learn more

10-Day Weather Forecast

Advertisements
Track Severe Weather on mobile